Time;durP1;ratioP1;P1;durP2;ratioP2;P2;SDS_P1;SDS_P2;PMS_P1;PMS_P2;Temp;Humidity;BMP_temperature;BMP_pressure;BME280_temperature;BME280_humidity;BME280_pressure;Samples;Min_cycle;Max_cycle;Signal;HPM_P1;HPM_P2
2024/01/04 00:01:55;;;;;;;1.00;0.70;;;;;;;;;;2610874;54;20517;-77
2024/01/04 00:07:25;;;;;;;3.27;1.50;;;;;;;;;;2612458;54;20397;-78
2024/01/04 00:12:54;;;;;;;1.20;1.00;;;;;;;;;;2613559;54;20383;-76
2024/01/04 00:18:24;;;;;;;1.40;1.10;;;;;;;;;;2612675;39;20742;-77
2024/01/04 00:23:54;;;;;;;2.23;1.60;;;;;;;;;;2612835;54;20367;-77
2024/01/04 00:29:24;;;;;;;5.07;2.37;;;;;;;;;;2612744;54;20398;-75
2024/01/04 00:34:53;;;;;;;9.67;2.60;;;;;;;;;;2612967;54;20364;-77
2024/01/04 00:40:23;;;;;;;5.17;2.50;;;;;;;;;;2614168;54;20364;-76
2024/01/04 00:52:00;;;;;;;6.00;2.33;;;;;;;;;;2611513;54;20396;-77
2024/01/04 00:57:29;;;;;;;7.87;4.10;;;;;;;;;;2612537;39;20938;-75
2024/01/04 01:02:59;;;;;;;5.47;2.70;;;;;;;;;;2613840;39;20784;-75
2024/01/04 01:08:29;;;;;;;5.20;3.50;;;;;;;;;;2612309;54;20377;-77
2024/01/04 01:13:59;;;;;;;8.83;5.20;;;;;;;;;;2612752;54;20379;-75
2024/01/04 01:19:28;;;;;;;10.70;5.33;;;;;;;;;;2610991;54;21032;-76
2024/01/04 01:24:58;;;;;;;4.00;2.40;;;;;;;;;;2611411;54;20389;-78
2024/01/04 01:30:29;;;;;;;8.07;5.30;;;;;;;;;;2611380;54;20419;-75
2024/01/04 01:33:14;;;;;;;7.20;4.27;;;;;;;;;;2611138;54;21730;-75
2024/01/04 01:35:40;;;;;;;5.30;3.03;;;;;;;;;;2610624;47;20412;-74
2024/01/04 01:38:25;;;;;;;6.13;2.20;;;;;;;;;;2610613;47;20444;-76
2024/01/04 01:40:51;;;;;;;5.73;4.70;;;;;;;;;;2611329;54;20431;-77
2024/01/04 01:49:52;;;;;;;4.20;2.20;;;;;;;;;;2611248;54;20421;-75
2024/01/04 01:55:22;;;;;;;10.33;4.20;;;;;;;;;;2610958;54;20489;-77
2024/01/04 02:00:52;;;;;;;1.90;1.50;;;;;;;;;;2610688;54;20416;-77
2024/01/04 02:06:21;;;;;;;3.50;2.00;;;;;;;;;;2611002;54;20353;-75
2024/01/04 02:11:51;;;;;;;4.40;1.50;;;;;;;;;;2611516;54;20357;-75
2024/01/04 02:17:21;;;;;;;2.97;2.40;;;;;;;;;;2614403;54;20328;-76
2024/01/04 02:22:52;;;;;;;3.10;2.90;;;;;;;;;;2614386;54;20392;-74
2024/01/04 02:28:22;;;;;;;5.37;4.00;;;;;;;;;;2611188;54;20498;-75
2024/01/04 02:33:52;;;;;;;5.17;3.17;;;;;;;;;;2610995;54;20405;-75
2024/01/04 02:39:21;;;;;;;5.97;4.03;;;;;;;;;;2611266;54;20467;-75
2024/01/04 02:44:51;;;;;;;6.87;5.73;;;;;;;;;;2610787;54;20372;-74
2024/01/04 02:50:40;;;;;;;6.30;3.03;;;;;;;;;;2610643;54;21099;-74
2024/01/04 02:56:09;;;;;;;2.30;1.77;;;;;;;;;;2611990;54;20408;-74
2024/01/04 03:01:41;;;;;;;5.47;3.87;;;;;;;;;;2612812;54;20429;-75
2024/01/04 03:07:11;;;;;;;9.20;5.57;;;;;;;;;;2611302;54;20396;-77
2024/01/04 03:12:40;;;;;;;10.23;5.07;;;;;;;;;;2611655;39;20779;-74
2024/01/04 03:18:10;;;;;;;8.17;5.27;;;;;;;;;;2612128;54;20374;-75
2024/01/04 03:23:40;;;;;;;3.90;2.73;;;;;;;;;;2612160;54;20370;-76
2024/01/04 03:29:10;;;;;;;10.73;4.30;;;;;;;;;;2614816;54;20906;-74
2024/01/04 03:34:39;;;;;;;4.93;2.80;;;;;;;;;;2614225;54;20894;-75
2024/01/04 03:40:09;;;;;;;11.27;4.23;;;;;;;;;;2615475;54;20464;-76
2024/01/04 03:45:39;;;;;;;4.27;2.90;;;;;;;;;;2611862;54;20395;-73
2024/01/04 03:54:40;;;;;;;4.97;2.53;;;;;;;;;;2611430;54;20377;-76
2024/01/04 04:00:10;;;;;;;7.90;2.70;;;;;;;;;;2612053;54;20509;-74
2024/01/04 04:05:44;;;;;;;2.33;1.80;;;;;;;;;;2615052;54;20906;-75
2024/01/04 04:11:17;;;;;;;7.77;2.30;;;;;;;;;;2611786;54;20413;-75
2024/01/04 04:16:47;;;;;;;3.10;2.63;;;;;;;;;;2612271;54;20354;-75
2024/01/04 04:22:16;;;;;;;1.23;1.10;;;;;;;;;;2612764;39;20780;-75
2024/01/04 04:27:46;;;;;;;3.50;1.77;;;;;;;;;;2611223;54;20392;-77
2024/01/04 04:33:15;;;;;;;2.53;1.20;;;;;;;;;;2611282;54;20966;-77
2024/01/04 04:38:45;;;;;;;1.87;0.77;;;;;;;;;;2610704;54;20360;-78
2024/01/04 04:44:15;;;;;;;1.90;1.60;;;;;;;;;;2612495;54;20456;-78
2024/01/04 04:49:44;;;;;;;2.20;1.43;;;;;;;;;;2615476;54;20381;-78
2024/01/04 04:55:14;;;;;;;2.97;1.77;;;;;;;;;;2613457;54;21045;-77
2024/01/04 05:00:44;;;;;;;3.47;1.90;;;;;;;;;;2612137;54;20344;-79
2024/01/04 05:06:13;;;;;;;2.40;1.50;;;;;;;;;;2611484;54;20395;-78
2024/01/04 05:11:43;;;;;;;7.07;2.13;;;;;;;;;;2611594;54;20951;-78
2024/01/04 05:17:12;;;;;;;3.63;1.90;;;;;;;;;;2611348;54;20349;-77
2024/01/04 05:22:42;;;;;;;3.30;1.90;;;;;;;;;;2611117;54;20360;-77
2024/01/04 05:28:12;;;;;;;5.33;2.20;;;;;;;;;;2611681;54;20361;-77
2024/01/04 05:33:42;;;;;;;2.20;1.57;;;;;;;;;;2613493;54;20377;-77
2024/01/04 05:39:11;;;;;;;3.23;2.20;;;;;;;;;;2611364;54;20425;-77
2024/01/04 05:44:41;;;;;;;2.30;1.40;;;;;;;;;;2611930;39;21320;-75
2024/01/04 05:50:11;;;;;;;3.80;1.70;;;;;;;;;;2611488;39;20722;-77
2024/01/04 05:59:12;;;;;;;6.33;2.43;;;;;;;;;;2611447;54;20425;-78
2024/01/04 06:04:42;;;;;;;4.47;2.33;;;;;;;;;;2614601;39;20740;-77
2024/01/04 06:10:11;;;;;;;1.70;1.60;;;;;;;;;;2614198;39;20763;-78
2024/01/04 06:15:41;;;;;;;1.60;1.40;;;;;;;;;;2610757;54;20491;-77
2024/01/04 06:21:11;;;;;;;2.40;1.53;;;;;;;;;;2610829;54;20351;-77
2024/01/04 06:26:41;;;;;;;3.97;2.10;;;;;;;;;;2610943;54;20388;-78
2024/01/04 06:32:10;;;;;;;3.70;2.23;;;;;;;;;;2614440;54;21040;-77
2024/01/04 06:37:40;;;;;;;3.47;2.43;;;;;;;;;;2611446;54;21566;-78
2024/01/04 06:43:10;;;;;;;4.57;2.40;;;;;;;;;;2612125;54;20410;-78
2024/01/04 06:48:39;;;;;;;3.00;2.27;;;;;;;;;;2611771;54;20409;-76
2024/01/04 06:54:09;;;;;;;2.90;1.83;;;;;;;;;;2613258;39;20872;-76
2024/01/04 06:59:39;;;;;;;30.83;3.93;;;;;;;;;;2610803;54;21524;-79
2024/01/04 07:05:11;;;;;;;7.20;3.60;;;;;;;;;;2611824;54;20349;-77
2024/01/04 07:10:40;;;;;;;8.57;4.57;;;;;;;;;;2611952;54;20431;-77
2024/01/04 07:16:10;;;;;;;8.27;5.57;;;;;;;;;;2613510;54;20959;-77
2024/01/04 07:21:40;;;;;;;9.00;7.27;;;;;;;;;;2611180;54;20441;-78
2024/01/04 07:27:10;;;;;;;12.00;8.77;;;;;;;;;;2610827;54;20498;-78
2024/01/04 07:32:40;;;;;;;10.73;8.67;;;;;;;;;;2610823;54;20477;-78
2024/01/04 07:38:10;;;;;;;14.13;8.50;;;;;;;;;;2611138;54;20386;-77
2024/01/04 07:43:40;;;;;;;10.40;6.43;;;;;;;;;;2612190;54;20336;-78
2024/01/04 07:46:25;;;;;;;8.37;7.30;;;;;;;;;;2610916;54;21168;-77
2024/01/04 07:48:51;;;;;;;8.30;6.80;;;;;;;;;;2613340;54;20380;-77
2024/01/04 07:54:22;;;;;;;14.50;7.30;;;;;;;;;;2613404;54;20404;-78
2024/01/04 08:09:19;;;;;;;8.73;5.30;;;;;;;;;;2613617;54;20380;-80
2024/01/04 08:14:48;;;;;;;8.13;5.30;;;;;;;;;;2613781;54;20384;-78
2024/01/04 08:20:19;;;;;;;4.40;4.00;;;;;;;;;;2609502;54;20493;-79
2024/01/04 08:25:48;;;;;;;2.20;2.00;;;;;;;;;;2611043;54;20398;-79
2024/01/04 08:31:32;;;;;;;3.77;3.10;;;;;;;;;;2612868;54;20376;-78
2024/01/04 08:37:01;;;;;;;6.60;2.77;;;;;;;;;;2612967;39;20915;-79
2024/01/04 08:42:30;;;;;;;4.73;3.73;;;;;;;;;;2613249;54;20352;-78
2024/01/04 08:48:00;;;;;;;8.27;6.10;;;;;;;;;;2613516;54;20417;-78
2024/01/04 08:53:29;;;;;;;13.43;9.93;;;;;;;;;;2613108;54;20385;-79
2024/01/04 08:58:58;;;;;;;11.13;5.60;;;;;;;;;;2611159;54;20450;-79
2024/01/04 09:04:27;;;;;;;7.00;4.87;;;;;;;;;;2611224;54;20430;-76
2024/01/04 09:09:57;;;;;;;7.27;3.70;;;;;;;;;;2611361;54;20389;-78
2024/01/04 09:15:26;;;;;;;6.33;4.10;;;;;;;;;;2611702;54;20976;-78
2024/01/04 09:20:56;;;;;;;7.30;4.80;;;;;;;;;;2611946;54;20388;-79
2024/01/04 09:26:25;;;;;;;8.70;3.90;;;;;;;;;;2612230;39;20793;-78
2024/01/04 09:31:55;;;;;;;7.60;5.30;;;;;;;;;;2613269;54;20360;-79
2024/01/04 09:37:25;;;;;;;9.00;5.30;;;;;;;;;;2613619;54;20401;-79
2024/01/04 09:42:55;;;;;;;13.70;5.00;;;;;;;;;;2614663;54;20376;-80
2024/01/04 09:48:26;;;;;;;10.90;6.80;;;;;;;;;;2611842;54;20366;-78
2024/01/04 09:53:57;;;;;;;12.67;9.07;;;;;;;;;;2614311;54;20358;-77
2024/01/04 10:05:35;;;;;;;10.43;7.90;;;;;;;;;;2614543;54;20432;-77
2024/01/04 10:11:10;;;;;;;13.43;9.50;;;;;;;;;;2613114;54;20340;-78
2024/01/04 10:16:40;;;;;;;8.40;4.57;;;;;;;;;;2612377;54;20428;-76
2024/01/04 10:22:10;;;;;;;4.57;3.67;;;;;;;;;;2610997;54;20473;-77
2024/01/04 10:27:40;;;;;;;6.17;4.40;;;;;;;;;;2611740;54;20382;-76
2024/01/04 10:33:10;;;;;;;10.30;4.83;;;;;;;;;;2610585;54;20414;-77
2024/01/04 10:38:40;;;;;;;6.23;3.50;;;;;;;;;;2610310;54;20343;-74
2024/01/04 10:44:09;;;;;;;7.03;4.23;;;;;;;;;;2612473;54;20386;-74
2024/01/04 10:49:42;;;;;;;8.90;4.00;;;;;;;;;;2610728;54;20343;-77
2024/01/04 10:55:11;;;;;;;8.87;4.70;;;;;;;;;;2613450;54;20507;-77
2024/01/04 11:04:19;;;;;;;8.50;6.07;;;;;;;;;;2613473;54;20445;-74
2024/01/04 11:09:48;;;;;;;8.87;6.60;;;;;;;;;;2611345;54;20518;-75
2024/01/04 11:15:18;;;;;;;8.60;4.83;;;;;;;;;;2612348;54;20385;-74
2024/01/04 11:20:47;;;;;;;12.20;6.10;;;;;;;;;;2612707;54;20393;-75
2024/01/04 11:26:20;;;;;;;10.70;7.00;;;;;;;;;;2614279;54;20389;-74
2024/01/04 11:31:50;;;;;;;5.40;4.67;;;;;;;;;;2614545;54;20477;-74
2024/01/04 11:37:20;;;;;;;7.53;6.30;;;;;;;;;;2614503;54;20378;-78
2024/01/04 11:42:49;;;;;;;9.73;6.33;;;;;;;;;;2613103;54;20434;-77
2024/01/04 11:48:20;;;;;;;6.13;3.70;;;;;;;;;;2614892;54;20429;-77
2024/01/04 11:53:50;;;;;;;6.10;4.30;;;;;;;;;;2614523;54;20488;-75
2024/01/04 12:05:19;;;;;;;8.57;5.03;;;;;;;;;;2613850;39;20747;-77
2024/01/04 12:10:56;;;;;;;6.80;3.13;;;;;;;;;;2613850;54;20353;-76
2024/01/04 12:16:25;;;;;;;5.20;3.70;;;;;;;;;;2614431;54;20402;-75
2024/01/04 12:21:55;;;;;;;2.23;1.60;;;;;;;;;;2613977;54;20389;-76
2024/01/04 12:27:24;;;;;;;4.50;2.40;;;8.40;99.90;;;;;;2614072;54;20408;-76
2024/01/04 12:32:53;;;;;;;3.63;2.70;;;;;;;;;;2614022;54;20118;-76
2024/01/04 12:38:24;;;;;;;1.90;1.27;;;;;;;;;;2614166;54;20406;-76
2024/01/04 12:43:54;;;;;;;5.77;3.50;;;;;;;;;;2614859;54;20425;-75
2024/01/04 12:49:24;;;;;;;4.37;3.40;;;;;;;;;;2614672;54;20339;-76
2024/01/04 12:54:54;;;;;;;4.97;3.73;;;;;;;;;;2614171;54;20391;-77
2024/01/04 13:06:31;;;;;;;2.90;2.10;;;;;;;;;;2614806;54;20501;-76
2024/01/04 13:12:02;;;;;;;4.87;4.00;;;;;;;;;;2615504;54;20365;-80
2024/01/04 13:17:32;;;;;;;5.30;3.97;;;;;;;;;;2614166;54;20386;-77
2024/01/04 13:23:02;;;;;;;4.83;4.07;;;;;;;;;;2614350;54;20432;-78
2024/01/04 13:28:31;;;;;;;2.77;2.27;;;;;;;;;;2614403;54;20501;-76
2024/01/04 13:34:01;;;;;;;4.13;1.93;;;;;;;;;;2614946;54;20498;-77
2024/01/04 13:39:31;;;;;;;5.93;2.17;;;;;;;;;;2614660;54;20361;-77
2024/01/04 13:45:02;;;;;;;4.07;2.97;;;;;;;;;;2613728;54;20520;-77
2024/01/04 13:50:31;;;;;;;4.00;1.80;;;;;;;;;;2614213;54;20389;-78
2024/01/04 13:56:01;;;;;;;3.17;2.00;;;;;;;;;;2613430;54;20417;-75
2024/01/04 14:05:08;;;;;;;4.03;2.90;;;;;;;;;;2614668;39;20796;-75
2024/01/04 14:10:42;;;;;;;3.60;2.40;;;;;;;;;;2614044;54;20930;-75
2024/01/04 14:16:11;;;;;;;5.00;2.53;;;;;;;;;;2614284;54;20373;-75
2024/01/04 14:21:41;;;;;;;2.20;1.73;;;;;;;;;;2614512;54;20371;-76
2024/01/04 14:27:11;;;;;;;2.87;1.70;;;;;;;;;;2614423;54;20358;-77
2024/01/04 14:32:41;;;;;;;6.63;3.00;;;;;;;;;;2613292;54;20512;-76
2024/01/04 14:38:11;;;;;;;7.77;5.40;;;;;;;;;;2614122;39;20819;-75
2024/01/04 14:43:41;;;;;;;11.50;6.70;;;;;;;;;;2614639;54;20377;-77
2024/01/04 14:49:11;;;;;;;20.07;8.07;;;;;;;;;;2612687;54;20407;-76
2024/01/04 14:54:41;;;;;;;9.20;4.93;;;;;;;;;;2613557;54;20387;-76
2024/01/04 15:00:13;;;;;;;16.93;7.07;;;;;;;;;;2613691;54;20882;-76
2024/01/04 15:05:43;;;;;;;17.83;9.60;;;;;;;;;;2613067;54;21129;-76
2024/01/04 15:11:12;;;;;;;13.37;7.77;;;;;;;;;;2614077;54;20444;-76
2024/01/04 15:16:44;;;;;;;17.67;6.80;;;;;;;;;;2614158;54;20398;-76
2024/01/04 15:22:14;;;;;;;13.70;7.03;;;;;;;;;;2612590;54;20433;-76
2024/01/04 15:27:44;;;;;;;12.80;5.63;;;;;;;;;;2615452;31;20783;-78
2024/01/04 15:33:14;;;;;;;14.00;6.80;;;;;;;;;;2613631;39;20843;-77
2024/01/04 15:38:43;;;;;;;9.60;5.13;;;;;;;;;;2612284;54;20447;-76
2024/01/04 15:44:14;;;;;;;10.80;7.00;;;;;;;;;;2612911;46;20401;-76
2024/01/04 15:49:44;;;;;;;14.93;4.97;;;;;;;;;;2612732;54;20947;-75
2024/01/04 15:55:13;;;;;;;6.90;3.03;;;;;;;;;;2613401;54;20359;-76
2024/01/04 16:00:43;;;;;;;7.63;3.60;;;;;;;;;;2613123;54;20385;-74
2024/01/04 16:03:28;;;;;;;17.30;5.10;;;;;;;;;;2612811;47;20389;-76
2024/01/04 16:06:30;;;;;;;11.60;4.67;;;;;;;;;;2614205;39;20923;-74
2024/01/04 16:11:59;;;;;;;22.37;3.90;;;;;;;;;;2613688;54;20470;-74
2024/01/04 16:17:29;;;;;;;11.73;5.23;;;;;;;;;;2614050;54;20365;-74
2024/01/04 16:22:59;;;;;;;9.00;4.40;;;;;;;;;;2614325;54;20389;-75
2024/01/04 16:28:28;;;;;;;16.20;4.60;;;;;;;;;;2613323;54;20961;-75
2024/01/04 16:33:58;;;;;;;7.27;2.93;;;;;;;;;;2615020;54;20918;-75
2024/01/04 16:39:28;;;;;;;11.77;4.63;;;;;;;;;;2611690;54;20921;-75
2024/01/04 16:44:57;;;;;;;10.87;3.77;;;;;;;;;;2611418;54;20357;-73
2024/01/04 16:50:27;;;;;;;11.37;5.50;;;;;;;;;;2612872;54;20413;-75
2024/01/04 16:55:57;;;;;;;11.27;3.83;;;;;;;;;;2614259;54;20361;-74
2024/01/04 17:01:26;;;;;;;14.53;4.30;;;;;;;;;;2613311;54;20425;-74
2024/01/04 17:16:07;;;;;;;10.50;5.00;;;;;;;;;;2613894;54;20389;-75
2024/01/04 17:21:37;;;;;;;14.43;5.33;;;;;;;;;;2613439;54;20373;-76
2024/01/04 17:27:07;;;;;;;12.27;4.80;;;;;;;;;;2610601;54;20378;-75
2024/01/04 17:32:36;;;;;;;12.60;5.30;;;;;;;;;;2612292;54;20398;-76
2024/01/04 17:38:06;;;;;;;12.80;5.57;;;;;;;;;;2610314;54;20357;-74
2024/01/04 17:43:36;;;;;;;14.00;5.93;;;;;;;;;;2610490;54;20381;-75
2024/01/04 17:49:06;;;;;;;15.00;6.83;;;;;;;;;;2610393;54;20402;-76
2024/01/04 17:54:39;;;;;;;10.63;5.47;;;;;;;;;;2612969;54;20353;-74
2024/01/04 18:00:09;;;;;;;12.37;4.37;;;;;;;;;;2610262;54;20458;-74
2024/01/04 18:05:40;;;;;;;12.37;4.23;;;;;;;;;;2611926;54;20385;-75
2024/01/04 18:11:10;;;;;;;15.43;7.13;;;;;;;;;;2610998;39;21085;-75
2024/01/04 18:16:41;;;;;;;20.07;10.87;;;;;;;;;;2613534;54;20381;-74
2024/01/04 18:22:11;;;;;;;17.30;7.63;;;;;;;;;;2613329;54;21008;-74
2024/01/04 18:27:41;;;;;;;17.47;8.70;;;;;;;;;;2614184;54;20494;-74
2024/01/04 18:33:10;;;;;;;18.30;7.63;;;;;;;;;;2615022;39;20879;-75
2024/01/04 18:38:40;;;;;;;16.43;7.97;;;;;;;;;;2613063;54;20365;-75
2024/01/04 18:44:10;;;;;;;26.10;11.03;;;;;;;;;;2611897;54;20386;-74
2024/01/04 18:49:39;;;;;;;24.77;12.00;;;;;;;;;;2611013;54;20354;-76
2024/01/04 18:55:09;;;;;;;20.90;11.80;;;;;;;;;;2612364;54;20381;-74
2024/01/04 19:00:39;;;;;;;15.90;10.90;;;;;;;;;;2612185;39;20451;-75
2024/01/04 19:06:09;;;;;;;15.00;6.20;;;;;;;;;;2612090;54;20927;-73
2024/01/04 19:15:14;;;;;;;15.10;4.80;;;;;;;;;;2613130;54;20365;-73
2024/01/04 19:20:44;;;;;;;7.80;5.57;;;;;;;;;;2610567;54;20427;-75
2024/01/04 19:26:14;;;;;;;14.10;6.73;;;;;;;;;;2611889;54;20374;-75
2024/01/04 19:31:44;;;;;;;10.47;4.63;;;;;;;;;;2613443;54;20389;-76
2024/01/04 19:37:13;;;;;;;18.17;4.80;;;;;;;;;;2613369;39;20812;-77
2024/01/04 19:42:44;;;;;;;23.30;4.77;;;;;;;;;;2612776;54;20341;-77
2024/01/04 19:48:15;;;;;;;14.80;5.50;;;;;;;;;;2610631;54;20385;-76
2024/01/04 19:53:45;;;;;;;4.90;3.70;;;;;;;;;;2612688;54;20875;-76
2024/01/04 19:59:15;;;;;;;12.33;4.90;;;;;;;;;;2612179;54;20395;-75
2024/01/04 20:04:44;;;;;;;20.13;12.23;;;;;;;;;;2610744;39;21033;-76
2024/01/04 20:10:14;;;;;;;13.20;6.00;;;;;;;;;;2611362;39;20781;-76
2024/01/04 20:15:44;;;;;;;10.77;4.77;;;;;;;;;;2610266;54;20404;-76
2024/01/04 20:21:14;;;;;;;12.47;5.60;;;;;;;;;;2610284;54;20332;-76
2024/01/04 20:26:44;;;;;;;11.03;4.60;;;;;;;;;;2610454;39;20788;-75
2024/01/04 20:32:15;;;;;;;9.13;4.43;;;;;;;;;;2610828;39;20712;-76
2024/01/04 20:37:45;;;;;;;8.90;4.27;;;;;;;;;;2610058;54;20396;-76
2024/01/04 20:43:15;;;;;;;15.87;5.80;;;;;;;;;;2612889;39;20434;-77
2024/01/04 20:48:45;;;;;;;10.70;4.60;;;;;;;;;;2609498;54;20339;-77
2024/01/04 20:54:15;;;;;;;16.90;4.77;;;;;;;;;;2610746;54;20941;-76
2024/01/04 20:59:44;;;;;;;18.03;6.00;;;;;;;;;;2612691;54;20377;-77
2024/01/04 21:05:18;;;;;;;7.00;4.60;;;;;;;;;;2611045;46;20380;-76
2024/01/04 21:10:48;;;;;;;13.13;5.17;;;;;;;;;;2613528;54;20373;-76
2024/01/04 21:20:01;;;;;;;11.50;4.80;;;;;;;;;;2612506;54;20498;-77
2024/01/04 21:25:31;;;;;;;15.90;4.53;;;;;;;;;;2611897;54;20382;-77
2024/01/04 21:31:01;;;;;;;6.53;3.60;;;;;;;;;;2613295;39;20824;-76
2024/01/04 21:36:30;;;;;;;10.70;4.10;;;;;;;;;;2613350;54;20368;-76
2024/01/04 21:42:00;;;;;;;12.40;3.63;;;;;;;;;;2614038;54;20512;-76
2024/01/04 21:47:29;;;;;;;8.37;3.83;;;;;;;;;;2614370;39;20711;-77
2024/01/04 21:52:59;;;;;;;9.80;3.93;;;;;;;;;;2614344;54;20387;-76
2024/01/04 21:58:29;;;;;;;10.57;4.23;;;;;;;;;;2612599;54;20381;-76
2024/01/04 22:03:58;;;;;;;6.50;3.13;;;;;;;;;;2610496;54;20498;-75
2024/01/04 22:09:30;;;;;;;6.10;2.90;;;;;;;;;;2612972;39;20743;-76
2024/01/04 22:14:59;;;;;;;6.03;3.17;;;;;;;;;;2613821;39;20713;-76
2024/01/04 22:20:30;;;;;;;8.13;3.73;;;;;;;;;;2614010;54;20480;-76
2024/01/04 22:25:59;;;;;;;11.50;3.67;;;;;;;;;;2614316;54;20925;-77
2024/01/04 22:31:29;;;;;;;10.07;4.83;;;;;;;;;;2613959;54;20382;-76
2024/01/04 22:36:59;;;;;;;6.93;2.70;;;;;;;;;;2612241;54;20362;-75
2024/01/04 22:42:29;;;;;;;7.70;3.67;;;;;;;;;;2611523;54;20379;-77
2024/01/04 22:47:59;;;;;;;8.37;2.93;;;;;;;;;;2609973;54;20373;-75
2024/01/04 22:53:29;;;;;;;8.50;3.70;;;;;;;;;;2611537;54;20467;-76
2024/01/04 22:58:58;;;;;;;6.87;2.80;;;;;;;;;;2610344;54;20952;-76
2024/01/04 23:04:28;;;;;;;9.10;3.50;;;;;;;;;;2611730;54;20385;-76
2024/01/04 23:09:58;;;;;;;5.43;3.17;;;;;;;;;;2611522;54;20352;-75
2024/01/04 23:15:27;;;;;;;6.30;2.50;;;;;;;;;;2611171;54;20408;-76
2024/01/04 23:24:35;;;;;;;7.30;3.10;;;;;;;;;;2613231;54;20390;-76
2024/01/04 23:30:05;;;;;;;9.40;2.80;;;;;;;;;;2610995;54;20507;-75
2024/01/04 23:35:35;;;;;;;10.00;2.80;;;;;;;;;;2614003;54;21485;-76
2024/01/04 23:41:05;;;;;;;5.03;2.43;;;;;;;;;;2614404;54;20387;-75
2024/01/04 23:46:34;;;;;;;8.40;2.77;;;;;;;;;;2613599;54;20412;-75
2024/01/04 23:52:04;;;;;;;11.57;2.87;;;;;;;;;;2611138;54;20370;-75
2024/01/04 23:57:34;;;;;;;6.53;2.60;;;;;;;;;;2611069;54;20383;-75
